Time;durP1;ratioP1;P1;durP2;ratioP2;P2;SDS_P1;SDS_P2;PMS_P1;PMS_P2;Temp;Humidity;BMP_temperature;BMP_pressure;BME280_temperature;BME280_humidity;BME280_pressure;Samples;Min_cycle;Max_cycle;Signal;HPM_P1;HPM_P2
2023/04/21 00:00:36;;;;;;;;;;;;;;;16.68;56.23;101969.84;2096659;28;19929;-54
2023/04/21 00:01:38;;;;;;;;;;;;;;;16.68;56.19;101967.13;2096544;28;19929;-54
2023/04/21 00:02:41;;;;;;;;;;;;;;;16.68;56.24;101970.63;2096533;28;20300;-55
2023/04/21 00:03:43;;;;;;;;;;;;;;;16.68;56.53;101970.63;2096753;28;19924;-54
2023/04/21 00:04:45;;;;;;;;;;;;;;;16.68;56.30;101969.84;2096728;28;20011;-52
2023/04/21 00:05:48;;;;;;;;;;;;;;;16.68;56.50;101969.84;2096085;28;19966;-55
2023/04/21 00:06:51;;;;;;;;;;;;;;;16.68;56.69;101969.84;2089094;28;19936;-52
2023/04/21 00:07:53;;;;;;;;;;;;;;;16.69;56.29;101971.44;2096265;28;20285;-54
2023/04/21 00:08:56;;;;;;;;;;;;;;;16.67;56.31;101965.53;2096641;28;19935;-54
2023/04/21 00:09:57;;;;;;;;;;;;;;;16.69;56.40;101965.97;2092803;28;19932;-54
2023/04/21 00:11:00;;;;;;;;;;;;;;;16.68;56.51;101967.91;2096652;28;19935;-54
2023/04/21 00:12:01;;;;;;;;;;;;;;;16.67;56.39;101960.88;2097091;28;19940;-54
2023/04/21 00:13:04;;;;;;;;;;;;;;;16.68;56.29;101958.94;2096843;28;19928;-52
2023/04/21 00:14:05;;;;;;;;;;;;;;;16.68;56.50;101959.72;2093058;28;19925;-55
2023/04/21 00:15:08;;;;;;;;;;;;;;;16.68;56.39;101953.50;2089398;28;19977;-54
2023/04/21 00:16:10;;;;;;;;;;;;;;;16.68;56.52;101959.72;2096579;28;19929;-53
2023/04/21 00:17:12;;;;;;;;;;;;;;;16.68;56.12;101964.41;2092585;28;19928;-52
2023/04/21 00:18:14;;;;;;;;;;;;;;;16.67;56.59;101962.81;2096726;28;19971;-54
2023/04/21 00:19:17;;;;;;;;;;;;;;;16.67;56.35;101957.34;2095304;28;19928;-54
2023/04/21 00:20:19;;;;;;;;;;;;;;;16.67;56.60;101957.34;2095579;28;20399;-54
2023/04/21 00:21:21;;;;;;;;;;;;;;;16.68;56.32;101961.69;2088847;28;20384;-54
2023/04/21 00:22:23;;;;;;;;;;;;;;;16.67;56.31;101957.34;2103026;28;19979;-55
2023/04/21 00:23:25;;;;;;;;;;;;;;;16.68;56.34;101948.03;2103965;28;19928;-54
2023/04/21 00:24:27;;;;;;;;;;;;;;;16.67;56.28;101951.91;2096341;28;19939;-54
2023/04/21 00:25:30;;;;;;;;;;;;;;;16.67;56.38;101947.25;2096588;28;19928;-51
2023/04/21 00:26:31;;;;;;;;;;;;;;;16.67;56.40;101946.44;2095890;28;19928;-54
2023/04/21 00:27:34;;;;;;;;;;;;;;;16.66;56.58;101948.41;2091261;28;19935;-55
2023/04/21 00:28:38;;;;;;;;;;;;;;;16.67;56.50;101949.16;2089149;28;20442;-56
2023/04/21 00:29:40;;;;;;;;;;;;;;;16.67;56.32;101951.91;2089550;28;20027;-55
2023/04/21 00:30:42;;;;;;;;;;;;;;;16.67;56.28;101951.91;2086093;28;19929;-55
2023/04/21 00:31:45;;;;;;;;;;;;;;;16.67;56.33;101946.44;2095242;28;19928;-54
2023/04/21 00:32:46;;;;;;;;;;;;;;;16.67;56.50;101952.69;2095947;28;19928;-57
2023/04/21 00:33:49;;;;;;;;;;;;;;;16.66;56.18;101942.94;2095285;28;19929;-55
2023/04/21 00:34:51;;;;;;;;;;;;;;;16.66;56.53;101948.41;2089769;28;19940;-54
2023/04/21 00:35:55;;;;;;;;;;;;;;;16.66;56.24;101951.13;2088769;28;20320;-55
2023/04/21 00:36:57;;;;;;;;;;;;;;;16.67;56.32;101949.16;2095580;28;20119;-54
2023/04/21 00:37:59;;;;;;;;;;;;;;;16.66;56.50;101937.50;2095943;28;19928;-54
2023/04/21 00:39:01;;;;;;;;;;;;;;;16.66;56.52;101932.03;2096470;28;19944;-55
2023/04/21 00:40:04;;;;;;;;;;;;;;;16.66;56.43;101933.97;2096377;28;20753;-54
2023/04/21 00:41:06;;;;;;;;;;;;;;;16.66;56.51;101934.75;2088405;28;19932;-55
2023/04/21 00:42:08;;;;;;;;;;;;;;;16.66;56.36;101923.06;2089833;28;20445;-55
2023/04/21 00:43:10;;;;;;;;;;;;;;;16.66;56.48;101928.50;2092452;28;19928;-54
2023/04/21 00:44:12;;;;;;;;;;;;;;;16.66;56.39;101921.13;2096459;28;19936;-55
2023/04/21 00:45:14;;;;;;;;;;;;;;;16.66;56.24;101923.84;2096691;28;19928;-53
2023/04/21 00:46:17;;;;;;;;;;;;;;;16.66;56.53;101929.31;2094787;28;19935;-54
2023/04/21 00:47:18;;;;;;;;;;;;;;;16.66;56.43;101923.06;2094733;28;19973;-55
2023/04/21 00:48:21;;;;;;;;;;;;;;;16.66;56.25;101923.06;2094645;28;19929;-54
2023/04/21 00:49:23;;;;;;;;;;;;;;;16.66;56.50;101914.88;2095204;28;19944;-53
2023/04/21 00:50:25;;;;;;;;;;;;;;;16.66;56.21;101920.34;2087410;28;19936;-53
2023/04/21 00:51:27;;;;;;;;;;;;;;;16.65;56.41;101916.03;2094879;28;20003;-55
2023/04/21 00:52:30;;;;;;;;;;;;;;;16.65;56.61;101916.81;2094670;28;20387;-53
2023/04/21 00:53:31;;;;;;;;;;;;;;;16.66;56.53;101912.94;2090088;28;19947;-53
2023/04/21 00:54:35;;;;;;;;;;;;;;;16.65;56.20;101911.34;2099970;28;19928;-53
2023/04/21 00:55:36;;;;;;;;;;;;;;;16.64;56.40;101909.78;2095772;28;20359;-54
2023/04/21 00:56:39;;;;;;;;;;;;;;;16.65;56.15;101911.34;2095106;28;19932;-53
2023/04/21 00:57:41;;;;;;;;;;;;;;;16.65;56.45;101907.84;2092547;28;19932;-55
2023/04/21 00:58:43;;;;;;;;;;;;;;;16.65;56.40;101905.13;2095788;28;19928;-54
2023/04/21 00:59:46;;;;;;;;;;;;;;;16.65;56.35;101903.16;2094709;28;19928;-58
2023/04/21 01:00:47;;;;;;;;;;;;;;;16.65;56.34;101911.34;2087353;28;19925;-59
2023/04/21 01:01:51;;;;;;;;;;;;;;;16.66;56.13;101906.69;2086572;28;19929;-53
2023/04/21 01:02:54;;;;;;;;;;;;;;;16.65;56.22;101900.44;2085216;28;19980;-55
2023/04/21 01:03:58;;;;;;;;;;;;;;;16.65;56.45;101905.13;2089340;28;20402;-54
2023/04/21 01:05:00;;;;;;;;;;;;;;;16.65;56.50;101896.94;2088446;28;19964;-54
2023/04/21 01:06:03;;;;;;;;;;;;;;;16.65;56.53;101905.13;2095011;28;19928;-55
2023/04/21 01:07:05;;;;;;;;;;;;;;;16.64;56.48;101889.88;2094176;28;19932;-55
2023/04/21 01:08:08;;;;;;;;;;;;;;;16.64;56.31;101893.41;2087634;28;20015;-53
2023/04/21 01:09:11;;;;;;;;;;;;;;;16.64;56.36;101887.97;2095679;28;19928;-54
2023/04/21 01:10:14;;;;;;;;;;;;;;;16.65;56.44;101888.75;2094599;28;19939;-53
2023/04/21 01:11:15;;;;;;;;;;;;;;;16.64;56.27;101892.63;2102954;28;19924;-55
2023/04/21 01:12:18;;;;;;;;;;;;;;;16.64;56.30;101895.34;2100189;28;19928;-55
2023/04/21 01:13:20;;;;;;;;;;;;;;;16.65;56.25;101895.00;2090553;28;19929;-54
2023/04/21 01:14:23;;;;;;;;;;;;;;;16.64;56.42;101898.06;2096305;28;20400;-54
2023/04/21 01:15:26;;;;;;;;;;;;;;;16.65;56.46;101899.66;2096404;28;19928;-54
2023/04/21 01:16:28;;;;;;;;;;;;;;;16.64;56.33;101887.97;2096331;28;19969;-55
2023/04/21 01:17:30;;;;;;;;;;;;;;;16.64;56.22;101889.88;2095993;28;20406;-54
2023/04/21 01:18:33;;;;;;;;;;;;;;;16.64;56.19;101890.69;2096147;28;19929;-56
2023/04/21 01:19:38;;;;;;;;;;;;;;;16.64;56.34;101892.63;2096813;28;20407;-55
2023/04/21 01:20:43;;;;;;;;;;;;;;;16.64;56.20;101887.16;2093858;28;19977;-54
2023/04/21 01:21:45;;;;;;;;;;;;;;;16.63;56.26;101882.88;2090669;28;19929;-53
2023/04/21 01:22:50;;;;;;;;;;;;;;;16.64;56.31;101889.88;2093174;28;19976;-55
2023/04/21 01:23:52;;;;;;;;;;;;;;;16.64;56.44;101881.72;2091505;28;19928;-53
2023/04/21 01:24:55;;;;;;;;;;;;;;;16.63;56.29;101885.59;2088491;28;19928;-54
2023/04/21 01:25:56;;;;;;;;;;;;;;;16.63;56.18;101885.59;2096066;28;20016;-55
2023/04/21 01:26:59;;;;;;;;;;;;;;;16.63;56.52;101880.13;2094768;28;19978;-55
2023/04/21 01:28:02;;;;;;;;;;;;;;;16.64;56.21;101895.34;2096273;28;20403;-59
2023/04/21 01:29:04;;;;;;;;;;;;;;;16.62;56.36;101884.78;2096076;28;19928;-52
2023/04/21 01:30:06;;;;;;;;;;;;;;;16.63;56.29;101880.13;2096402;28;19924;-55
2023/04/21 01:31:10;;;;;;;;;;;;;;;16.63;56.37;101880.94;2102354;28;19982;-55
2023/04/21 01:32:14;;;;;;;;;;;;;;;16.63;56.41;101885.59;2099003;28;19929;-55
2023/04/21 01:33:17;;;;;;;;;;;;;;;16.63;56.36;101882.88;2091254;28;19940;-55
2023/04/21 01:34:19;;;;;;;;;;;;;;;16.62;56.59;101879.34;2096456;28;19940;-53
2023/04/21 01:35:21;;;;;;;;;;;;;;;16.63;56.21;101877.41;2096434;28;19924;-55
2023/04/21 01:36:23;;;;;;;;;;;;;;;16.62;56.28;101878.56;2095969;28;20040;-55
2023/04/21 01:37:28;;;;;;;;;;;;;;;16.63;56.44;101871.97;2091055;28;19924;-54
2023/04/21 01:38:30;;;;;;;;;;;;;;;16.62;56.19;101873.88;2090883;28;19932;-55
2023/04/21 01:39:33;;;;;;;;;;;;;;;16.62;56.37;101867.66;2088654;28;19967;-54
2023/04/21 01:40:35;;;;;;;;;;;;;;;16.63;56.15;101863.78;2096326;28;19924;-54
2023/04/21 01:41:38;;;;;;;;;;;;;;;16.61;56.25;101861.41;2095919;28;19929;-55
2023/04/21 01:42:41;;;;;;;;;;;;;;;16.62;56.33;101864.94;2096276;28;19985;-54
2023/04/21 01:43:44;;;;;;;;;;;;;;;16.61;56.21;101866.88;2094346;28;19924;-55
2023/04/21 01:44:45;;;;;;;;;;;;;;;16.61;56.24;101866.88;2095904;28;19955;-53
2023/04/21 01:45:49;;;;;;;;;;;;;;;16.62;56.06;101862.97;2087666;28;20512;-53
2023/04/21 01:46:51;;;;;;;;;;;;;;;16.62;56.17;101856.75;2088580;28;20036;-53
2023/04/21 01:47:54;;;;;;;;;;;;;;;16.61;56.21;101861.41;2091885;28;20264;-54
2023/04/21 01:48:55;;;;;;;;;;;;;;;16.62;56.39;101862.22;2096241;28;20024;-55
2023/04/21 01:49:58;;;;;;;;;;;;;;;16.61;56.33;101866.88;2096449;28;19929;-59
2023/04/21 01:51:00;;;;;;;;;;;;;;;16.62;56.27;101862.22;2095861;28;19946;-54
2023/04/21 01:52:02;;;;;;;;;;;;;;;16.61;56.15;101850.50;2096110;28;20438;-55
2023/04/21 01:53:04;;;;;;;;;;;;;;;16.61;56.15;101860.63;2092657;28;19932;-55
2023/04/21 01:54:07;;;;;;;;;;;;;;;16.60;56.30;101854.38;2087906;28;19954;-55
2023/04/21 01:55:08;;;;;;;;;;;;;;;16.61;56.27;101857.88;2104058;28;20031;-53
2023/04/21 01:56:13;;;;;;;;;;;;;;;16.60;56.39;101848.13;2094112;28;20406;-55
2023/04/21 01:57:15;;;;;;;;;;;;;;;16.60;56.28;101854.38;2095294;28;19936;-53
2023/04/21 01:58:17;;;;;;;;;;;;;;;16.61;56.25;101855.16;2095086;28;19928;-55
2023/04/21 01:59:19;;;;;;;;;;;;;;;16.60;56.26;101848.94;2095055;28;19955;-54
2023/04/21 02:00:22;;;;;;;;;;;;;;;16.61;56.34;101855.97;2087460;28;19936;-53
2023/04/21 02:01:24;;;;;;;;;;;;;;;16.60;56.38;101853.59;2088968;28;19929;-53
2023/04/21 02:02:26;;;;;;;;;;;;;;;16.60;56.41;101853.59;2093206;28;19940;-54
2023/04/21 02:03:28;;;;;;;;;;;;;;;16.60;56.32;101839.97;2096754;28;19935;-55
2023/04/21 02:04:31;;;;;;;;;;;;;;;16.60;56.30;101853.59;2096212;28;19929;-55
2023/04/21 02:05:33;;;;;;;;;;;;;;;16.59;56.27;101847.34;2092125;28;19936;-53
2023/04/21 02:06:36;;;;;;;;;;;;;;;16.60;55.99;101848.13;2097073;28;20354;-55
2023/04/21 02:07:39;;;;;;;;;;;;;;;16.60;56.12;101853.59;2096770;28;19929;-55
2023/04/21 02:08:42;;;;;;;;;;;;;;;16.59;56.27;101852.78;2104364;28;19928;-54
2023/04/21 02:09:43;;;;;;;;;;;;;;;16.59;56.12;101847.34;2103352;28;20011;-54
2023/04/21 02:10:46;;;;;;;;;;;;;;;16.60;56.26;101850.88;2093186;28;19932;-55
2023/04/21 02:11:48;;;;;;;;;;;;;;;16.60;56.35;101856.31;2096927;28;20396;-55
2023/04/21 02:12:51;;;;;;;;;;;;;;;16.59;56.07;101862.91;2103028;28;20509;-54
2023/04/21 02:13:53;;;;;;;;;;;;;;;16.59;56.31;101852.00;2104518;28;20764;-54
2023/04/21 02:14:56;;;;;;;;;;;;;;;16.59;56.09;101852.78;2098134;28;20015;-53
2023/04/21 02:15:57;;;;;;;;;;;;;;;16.59;56.25;101854.72;2088581;28;19971;-55
2023/04/21 02:17:14;;;;;;;;;;;;;;;16.59;56.31;101854.72;2086298;28;20019;-55
2023/04/21 02:18:15;;;;;;;;;;;;;;;16.60;56.26;101848.13;2096935;28;19968;-55
2023/04/21 02:19:18;;;;;;;;;;;;;;;16.58;56.24;101851.22;2097321;28;19924;-55
2023/04/21 02:20:20;;;;;;;;;;;;;;;16.59;56.30;101852.00;2102717;28;19933;-55
2023/04/21 02:21:24;;;;;;;;;;;;;;;16.58;56.20;101848.50;2104094;28;19985;-54
2023/04/21 02:22:25;;;;;;;;;;;;;;;16.59;56.14;101846.53;2091785;28;19936;-54
2023/04/21 02:23:29;;;;;;;;;;;;;;;16.59;56.47;101841.09;2091031;28;19955;-53
2023/04/21 02:24:31;;;;;;;;;;;;;;;16.58;55.97;101845.78;2089777;28;20035;-54
2023/04/21 02:25:33;;;;;;;;;;;;;;;16.58;56.07;101847.69;2089089;28;19924;-54
2023/04/21 02:26:35;;;;;;;;;;;;;;;16.59;56.06;101841.09;2091186;28;19928;-53
2023/04/21 02:27:37;;;;;;;;;;;;;;;16.58;56.10;101839.50;2094185;28;19928;-55
2023/04/21 02:28:39;;;;;;;;;;;;;;;16.57;56.15;101841.44;2091462;28;19929;-54
2023/04/21 02:29:42;;;;;;;;;;;;;;;16.59;56.35;101835.63;2087176;28;19933;-54
2023/04/21 02:30:43;;;;;;;;;;;;;;;16.57;56.41;101837.94;2099036;28;19977;-52
2023/04/21 02:31:46;;;;;;;;;;;;;;;16.58;55.97;101842.25;2097241;28;19939;-53
2023/04/21 02:33:00;;;;;;;;;;;;;;;16.58;55.98;101834.06;2094774;28;19931;-55
2023/04/21 02:34:02;;;;;;;;;;;;;;;16.57;56.24;101841.44;2094991;28;20022;-54
2023/04/21 02:35:05;;;;;;;;;;;;;;;16.57;56.24;101833.25;2091947;28;19931;-54
2023/04/21 02:36:07;;;;;;;;;;;;;;;16.58;56.10;101823.16;2097209;28;19924;-55
2023/04/21 02:37:10;;;;;;;;;;;;;;;16.58;56.39;101836.78;2096627;28;20399;-55
2023/04/21 02:38:11;;;;;;;;;;;;;;;16.58;56.18;101834.06;2097013;28;20049;-56
2023/04/21 02:39:16;;;;;;;;;;;;;;;16.57;56.33;101829.75;2096570;28;19928;-54
2023/04/21 02:40:18;;;;;;;;;;;;;;;16.57;56.18;101830.53;2096379;28;19950;-55
2023/04/21 02:41:22;;;;;;;;;;;;;;;16.58;56.41;101825.88;2088470;28;20311;-52
2023/04/21 02:42:23;;;;;;;;;;;;;;;16.57;56.13;101821.59;2088299;28;19986;-53
2023/04/21 02:43:27;;;;;;;;;;;;;;;16.57;56.30;101827.81;2094957;28;19929;-55
2023/04/21 02:44:30;;;;;;;;;;;;;;;16.57;55.99;101824.31;2105016;28;20015;-55
2023/04/21 02:45:33;;;;;;;;;;;;;;;16.56;56.08;101826.25;2104544;28;20069;-52
2023/04/21 02:46:37;;;;;;;;;;;;;;;16.56;56.10;101826.25;2097759;28;19925;-54
2023/04/21 02:47:38;;;;;;;;;;;;;;;16.57;56.09;101824.31;2096079;28;20031;-54
2023/04/21 02:48:41;;;;;;;;;;;;;;;16.57;56.16;101824.31;2093141;28;19928;-55
2023/04/21 02:49:42;;;;;;;;;;;;;;;16.57;56.09;101832.50;2099893;28;19924;-55
2023/04/21 02:50:47;;;;;;;;;;;;;;;16.56;55.96;101820.78;2097975;28;19928;-53
2023/04/21 02:51:48;;;;;;;;;;;;;;;16.56;56.03;101825.44;2097259;28;19974;-53
2023/04/21 02:52:51;;;;;;;;;;;;;;;16.56;56.15;101830.88;2096746;28;19932;-53
2023/04/21 02:53:52;;;;;;;;;;;;;;;16.56;56.01;101826.25;2096507;28;19976;-54
2023/04/21 02:54:55;;;;;;;;;;;;;;;16.56;56.18;101836.34;2095342;28;19936;-55
2023/04/21 02:56:01;;;;;;;;;;;;;;;16.56;55.95;101817.25;2091526;28;19936;-54
2023/04/21 02:57:05;;;;;;;;;;;;;;;16.56;56.21;101820.78;2105224;28;19935;-55
2023/04/21 02:58:06;;;;;;;;;;;;;;;16.56;56.32;101820.00;2104804;28;19974;-54
2023/04/21 02:59:10;;;;;;;;;;;;;;;16.56;56.29;101825.44;2096573;28;19972;-54
2023/04/21 03:00:13;;;;;;;;;;;;;;;16.57;56.23;101824.31;2097472;28;20026;-51
2023/04/21 03:01:16;;;;;;;;;;;;;;;16.55;55.96;101824.66;2097905;28;19929;-54
2023/04/21 03:02:18;;;;;;;;;;;;;;;16.54;56.00;101823.06;2096140;28;19924;-55
2023/04/21 03:03:21;;;;;;;;;;;;;;;16.54;56.03;101820.34;2096745;28;20289;-53
2023/04/21 03:04:24;;;;;;;;;;;;;;;16.56;56.30;101820.78;2091096;28;19932;-55
2023/04/21 03:05:26;;;;;;;;;;;;;;;16.55;56.17;101823.88;2089147;28;19931;-53
2023/04/21 03:06:28;;;;;;;;;;;;;;;16.54;56.27;101823.06;2092472;28;20338;-55
2023/04/21 03:07:30;;;;;;;;;;;;;;;16.55;56.17;101818.41;2096729;28;19924;-55
2023/04/21 03:08:32;;;;;;;;;;;;;;;16.55;55.97;101824.66;2097302;28;19924;-54
2023/04/21 03:09:35;;;;;;;;;;;;;;;16.55;56.00;101821.16;2097160;28;20295;-55
2023/04/21 03:10:36;;;;;;;;;;;;;;;16.55;56.27;101821.16;2097932;28;19932;-54
2023/04/21 03:11:39;;;;;;;;;;;;;;;16.55;56.00;101823.88;2097710;28;19938;-53
2023/04/21 03:12:40;;;;;;;;;;;;;;;16.54;56.29;101823.06;2093456;28;20381;-56
2023/04/21 03:13:43;;;;;;;;;;;;;;;16.55;56.22;101823.88;2096697;28;19967;-56
2023/04/21 03:14:45;;;;;;;;;;;;;;;16.54;56.22;101827.75;2097159;28;19978;-54
2023/04/21 03:15:48;;;;;;;;;;;;;;;16.54;56.09;101823.06;2094934;28;19928;-55
2023/04/21 03:16:50;;;;;;;;;;;;;;;16.54;56.27;101825.81;2096088;28;19925;-51
2023/04/21 03:17:52;;;;;;;;;;;;;;;16.54;55.95;101822.31;2096343;28;20027;-53
2023/04/21 03:18:56;;;;;;;;;;;;;;;16.54;56.18;101825.81;2095547;28;20458;-53
2023/04/21 03:19:59;;;;;;;;;;;;;;;16.54;56.23;101816.84;2097025;28;19928;-52
2023/04/21 03:21:00;;;;;;;;;;;;;;;16.54;56.12;101825.81;2092080;28;19972;-55
2023/04/21 03:22:03;;;;;;;;;;;;;;;16.53;56.09;101821.50;2097049;28;20440;-55
2023/04/21 03:23:05;;;;;;;;;;;;;;;16.54;56.26;101822.31;2093579;28;19932;-55
2023/04/21 03:24:07;;;;;;;;;;;;;;;16.55;56.16;101829.31;2096260;28;19928;-52
2023/04/21 03:25:10;;;;;;;;;;;;;;;16.54;55.98;101827.75;2097400;28;20015;-55
2023/04/21 03:26:12;;;;;;;;;;;;;;;16.54;56.14;101831.25;2088378;28;19932;-53
2023/04/21 03:27:14;;;;;;;;;;;;;;;16.54;55.93;101830.47;2079188;28;19925;-58
2023/04/21 03:28:17;;;;;;;;;;;;;;;16.53;55.93;101824.22;2093510;28;19959;-55
2023/04/21 03:29:19;;;;;;;;;;;;;;;16.53;56.04;101826.16;2099784;28;19928;-54
2023/04/21 03:30:22;;;;;;;;;;;;;;;16.53;56.17;101832.41;2094674;28;19967;-54
2023/04/21 03:31:24;;;;;;;;;;;;;;;16.54;56.02;101830.47;2088187;28;19935;-55
2023/04/21 03:32:26;;;;;;;;;;;;;;;16.53;56.15;101832.41;2088266;28;19932;-55
2023/04/21 03:33:28;;;;;;;;;;;;;;;16.54;55.85;101833.22;2084131;28;20670;-54
2023/04/21 03:34:30;;;;;;;;;;;;;;;16.53;56.16;101831.59;2094713;28;19931;-54
2023/04/21 03:35:34;;;;;;;;;;;;;;;16.53;56.12;101834.34;2097505;28;19924;-55
2023/04/21 03:36:37;;;;;;;;;;;;;;;16.53;55.97;101828.88;2093526;28;19929;-55
2023/04/21 03:37:38;;;;;;;;;;;;;;;16.53;55.84;101826.16;2089827;28;20347;-54
2023/04/21 03:38:41;;;;;;;;;;;;;;;16.52;55.97;101819.94;2095240;28;19936;-55
2023/04/21 03:39:43;;;;;;;;;;;;;;;16.52;56.16;101830.84;2096877;28;19928;-54
2023/04/21 03:40:46;;;;;;;;;;;;;;;16.53;56.19;101831.59;2087841;28;19929;-55
2023/04/21 03:41:48;;;;;;;;;;;;;;;16.52;56.09;101830.84;2088052;28;19929;-55
2023/04/21 03:42:50;;;;;;;;;;;;;;;16.53;56.15;101828.88;2104590;28;19924;-55
2023/04/21 03:43:52;;;;;;;;;;;;;;;16.52;56.12;101828.13;2095469;28;20006;-55
2023/04/21 03:44:55;;;;;;;;;;;;;;;16.53;56.15;101826.16;2089555;28;20412;-55
2023/04/21 03:45:56;;;;;;;;;;;;;;;16.53;56.16;101832.41;2090281;28;19928;-53
2023/04/21 03:47:02;;;;;;;;;;;;;;;16.52;55.97;101824.59;2093911;28;19936;-53
2023/04/21 03:48:04;;;;;;;;;;;;;;;16.52;55.84;101825.38;2094353;28;19928;-54
2023/04/21 03:49:06;;;;;;;;;;;;;;;16.53;55.88;101817.97;2095206;28;20042;-54
2023/04/21 03:50:08;;;;;;;;;;;;;;;16.52;56.03;101821.84;2097524;28;19928;-54
2023/04/21 03:51:10;;;;;;;;;;;;;;;16.52;56.25;101822.66;2091544;28;20891;-55
2023/04/21 03:52:12;;;;;;;;;;;;;;;16.52;56.00;101821.84;2093569;28;19932;-55
2023/04/21 03:53:15;;;;;;;;;;;;;;;16.52;56.14;101819.13;2091333;28;19954;-55
2023/04/21 03:54:16;;;;;;;;;;;;;;;16.52;56.18;101821.84;2096740;28;20077;-52
2023/04/21 03:55:19;;;;;;;;;;;;;;;16.52;56.07;101825.38;2096146;28;20298;-54
2023/04/21 03:56:21;;;;;;;;;;;;;;;16.52;56.08;101813.69;2095897;28;19928;-54
2023/04/21 03:57:23;;;;;;;;;;;;;;;16.51;56.15;101818.34;2096745;28;19932;-53
2023/04/21 03:58:25;;;;;;;;;;;;;;;16.52;55.83;101816.41;2096157;28;19928;-55
2023/04/21 03:59:27;;;;;;;;;;;;;;;16.52;56.17;101816.41;2094169;28;19925;-55
2023/04/21 04:00:29;;;;;;;;;;;;;;;16.51;55.87;101807.44;2090316;28;19929;-54
2023/04/21 04:01:32;;;;;;;;;;;;;;;16.52;56.06;101819.13;2096096;28;20484;-54
2023/04/21 04:02:33;;;;;;;;;;;;;;;16.51;56.06;101812.88;2095619;28;19932;-54
2023/04/21 04:03:36;;;;;;;;;;;;;;;16.51;56.12;101809.38;2095759;28;19925;-52
2023/04/21 04:04:38;;;;;;;;;;;;;;;16.51;56.11;101806.66;2095374;28;20293;-54
2023/04/21 04:05:40;;;;;;;;;;;;;;;16.52;55.98;101805.50;2091916;28;20478;-55
2023/04/21 04:06:42;;;;;;;;;;;;;;;16.50;55.97;101808.59;2096533;28;19952;-59
2023/04/21 04:07:45;;;;;;;;;;;;;;;16.52;55.90;101808.22;2096577;28;20292;-54
2023/04/21 04:08:46;;;;;;;;;;;;;;;16.51;56.07;101806.66;2095523;28;19929;-54
2023/04/21 04:09:49;;;;;;;;;;;;;;;16.50;56.10;101818.69;2095728;28;19928;-53
2023/04/21 04:10:50;;;;;;;;;;;;;;;16.50;55.96;101816.75;2096707;28;20426;-55
2023/04/21 04:11:53;;;;;;;;;;;;;;;16.50;55.92;101810.50;2096785;28;19932;-55
2023/04/21 04:12:55;;;;;;;;;;;;;;;16.51;56.17;101806.66;2096453;28;20448;-55
2023/04/21 04:13:57;;;;;;;;;;;;;;;16.50;55.82;101808.59;2097111;28;19928;-56
2023/04/21 04:15:00;;;;;;;;;;;;;;;16.49;56.07;101809.72;2096054;28;20334;-55
2023/04/21 04:16:02;;;;;;;;;;;;;;;16.51;56.13;101812.13;2094995;28;19998;-53
2023/04/21 04:17:04;;;;;;;;;;;;;;;16.50;56.11;101815.97;2090076;28;19928;-56
2023/04/21 04:18:07;;;;;;;;;;;;;;;16.50;55.90;101815.97;2096205;28;19933;-54
2023/04/21 04:19:09;;;;;;;;;;;;;;;16.50;55.99;101815.97;2096455;28;19935;-53
2023/04/21 04:20:11;;;;;;;;;;;;;;;16.51;56.12;101817.56;2095917;28;19935;-55
2023/04/21 04:21:13;;;;;;;;;;;;;;;16.50;56.10;101816.75;2095604;28;19939;-52
2023/04/21 04:22:16;;;;;;;;;;;;;;;16.50;56.22;101810.50;2096391;28;19948;-55
2023/04/21 04:23:17;;;;;;;;;;;;;;;16.51;55.83;101817.56;2097322;28;19924;-55
2023/04/21 04:24:20;;;;;;;;;;;;;;;16.49;56.08;101808.94;2096461;28;20399;-54
2023/04/21 04:25:22;;;;;;;;;;;;;;;16.50;56.03;101810.50;2095923;28;19925;-55
2023/04/21 04:26:25;;;;;;;;;;;;;;;16.50;55.91;101811.31;2095834;28;19940;-53
2023/04/21 04:27:27;;;;;;;;;;;;;;;16.50;56.06;101805.06;2095742;28;19929;-55
2023/04/21 04:28:29;;;;;;;;;;;;;;;16.49;55.81;101809.72;2097103;28;20705;-52
2023/04/21 04:29:31;;;;;;;;;;;;;;;16.51;56.06;101812.13;2095739;28;20392;-55
2023/04/21 04:30:34;;;;;;;;;;;;;;;16.49;55.84;101804.25;2095762;28;19925;-54
2023/04/21 04:31:35;;;;;;;;;;;;;;;16.49;55.74;101798.03;2096431;28;20023;-55
2023/04/21 04:32:38;;;;;;;;;;;;;;;16.50;55.81;101799.63;2096529;28;19924;-55
2023/04/21 04:33:41;;;;;;;;;;;;;;;16.50;55.82;101805.06;2096816;28;20039;-55
2023/04/21 04:34:44;;;;;;;;;;;;;;;16.49;56.07;101800.78;2089794;28;19933;-54
2023/04/21 04:35:46;;;;;;;;;;;;;;;16.49;56.21;101803.50;2091916;28;19929;-55
2023/04/21 04:36:49;;;;;;;;;;;;;;;16.48;56.14;101808.16;2091952;28;19936;-53
2023/04/21 04:37:51;;;;;;;;;;;;;;;16.49;55.86;101809.72;2091262;28;19925;-52
2023/04/21 04:38:53;;;;;;;;;;;;;;;16.49;55.88;101798.81;2096234;28;19924;-55
2023/04/21 04:39:55;;;;;;;;;;;;;;;16.48;56.08;101802.69;2094814;28;19939;-54
2023/04/21 04:41:00;;;;;;;;;;;;;;;16.49;55.81;101811.66;2096113;28;19962;-55
2023/04/21 04:42:02;;;;;;;;;;;;;;;16.49;55.94;101808.94;2096772;28;20384;-54
2023/04/21 04:43:07;;;;;;;;;;;;;;;16.50;55.73;101815.97;2096787;28;19932;-54
2023/04/21 04:44:10;;;;;;;;;;;;;;;16.48;56.11;101813.59;2090050;28;20442;-55
2023/04/21 04:45:12;;;;;;;;;;;;;;;16.48;56.00;101813.59;2096681;28;20011;-54
2023/04/21 04:46:14;;;;;;;;;;;;;;;16.49;55.80;101817.13;2092905;28;19932;-54
2023/04/21 04:47:16;;;;;;;;;;;;;;;16.49;56.07;101817.91;2089612;28;19928;-54
2023/04/21 04:48:18;;;;;;;;;;;;;;;16.49;56.01;101819.84;2097082;28;19935;-52
2023/04/21 04:49:21;;;;;;;;;;;;;;;16.49;56.10;101814.41;2096371;28;19925;-53
2023/04/21 04:50:24;;;;;;;;;;;;;;;16.49;55.88;101819.84;2096689;28;19932;-55
2023/04/21 04:51:27;;;;;;;;;;;;;;;16.49;56.14;101814.41;2096473;28;19975;-55
2023/04/21 04:52:28;;;;;;;;;;;;;;;16.49;55.94;101819.84;2095983;28;19936;-53
2023/04/21 04:53:31;;;;;;;;;;;;;;;16.49;55.96;101814.41;2094498;28;19924;-54
2023/04/21 04:54:32;;;;;;;;;;;;;;;16.48;55.94;101819.06;2093234;28;19924;-54
2023/04/21 04:55:35;;;;;;;;;;;;;;;16.48;55.67;101819.06;2096475;28;19932;-53
2023/04/21 04:56:37;;;;;;;;;;;;;;;16.49;55.98;101819.84;2096519;28;19924;-55
2023/04/21 04:57:39;;;;;;;;;;;;;;;16.49;55.84;101825.31;2096811;28;19958;-54
2023/04/21 04:58:41;;;;;;;;;;;;;;;16.48;56.07;101821.78;2096783;28;20011;-55
2023/04/21 04:59:45;;;;;;;;;;;;;;;16.48;55.91;101820.97;2096202;28;19928;-53
2023/04/21 05:00:47;;;;;;;;;;;;;;;16.48;56.07;101824.50;2096256;28;19978;-55
2023/04/21 05:01:50;;;;;;;;;;;;;;;16.48;56.01;101812.78;2095928;28;19929;-53
2023/04/21 05:02:51;;;;;;;;;;;;;;;16.49;55.87;101819.84;2096638;28;19929;-55
2023/04/21 05:03:54;;;;;;;;;;;;;;;16.49;56.01;101822.56;2092352;28;19967;-54
2023/04/21 05:04:56;;;;;;;;;;;;;;;16.48;55.73;101818.25;2095771;28;19935;-55
2023/04/21 05:05:59;;;;;;;;;;;;;;;16.48;55.94;101821.78;2093830;28;19932;-55
2023/04/21 05:07:00;;;;;;;;;;;;;;;16.48;56.13;101827.22;2095551;28;20009;-55
2023/04/21 05:08:03;;;;;;;;;;;;;;;16.49;55.97;101814.41;2088734;28;19932;-55
2023/04/21 05:09:05;;;;;;;;;;;;;;;16.48;55.87;101818.25;2095886;28;19936;-54
2023/04/21 05:10:07;;;;;;;;;;;;;;;16.48;56.01;101815.53;2095123;28;19974;-54
2023/04/21 05:11:09;;;;;;;;;;;;;;;16.49;55.73;101817.13;2095486;28;20552;-53
2023/04/21 05:12:11;;;;;;;;;;;;;;;16.49;55.76;101814.41;2096373;28;19928;-54
2023/04/21 05:13:15;;;;;;;;;;;;;;;16.48;56.03;101813.59;2096860;28;20026;-55
2023/04/21 05:14:18;;;;;;;;;;;;;;;16.49;55.99;101814.41;2096076;28;19924;-55
2023/04/21 05:15:21;;;;;;;;;;;;;;;16.47;55.83;101812.03;2096044;28;19928;-53
2023/04/21 05:16:23;;;;;;;;;;;;;;;16.49;55.79;101817.13;2096409;28;20300;-53
2023/04/21 05:17:26;;;;;;;;;;;;;;;16.48;55.77;101818.25;2095546;28;19994;-55
2023/04/21 05:18:28;;;;;;;;;;;;;;;16.48;55.83;101821.78;2095571;28;19933;-53
2023/04/21 05:19:30;;;;;;;;;;;;;;;16.48;55.71;101818.25;2095649;28;19925;-55
2023/04/21 05:20:33;;;;;;;;;;;;;;;16.48;55.78;101812.78;2094799;28;19940;-55